Time;durP1;ratioP1;P1;durP2;ratioP2;P2;SDS_P1;SDS_P2;PMS_P1;PMS_P2;Temp;Humidity;BMP_temperature;BMP_pressure;BME280_temperature;BME280_humidity;BME280_pressure;Samples;Min_cycle;Max_cycle;Signal;HPM_P1;HPM_P2
2022/06/04 00:01:03;;;;;;;6.28;2.25;;;;;;;14.94;61.96;101558.09;10507825;28;20045;-72
2022/06/04 00:06:07;;;;;;;3.83;2.85;;;;;;;14.89;62.29;101564.03;10490477;28;20089;-73
2022/06/04 00:16:27;;;;;;;3.90;2.47;;;;;;;14.88;61.85;101560.47;10456636;28;20037;-73
2022/06/04 00:21:28;;;;;;;4.67;2.30;;;;;;;14.83;61.50;101551.47;10450802;28;20036;-72
2022/06/04 00:26:29;;;;;;;5.75;2.70;;;;;;;14.79;61.70;101566.28;10506562;28;20031;-73
2022/06/04 00:31:29;;;;;;;8.30;2.47;;;;;;;14.71;61.58;101543.97;10502065;28;20029;-73
2022/06/04 00:36:31;;;;;;;11.82;2.72;;;;;;;14.75;60.99;101538.00;10483967;28;20119;-72
2022/06/04 00:41:35;;;;;;;4.68;2.10;;;;;;;14.67;60.92;101556.06;10466887;28;20484;-73
2022/06/04 00:46:41;;;;;;;6.43;2.35;;;;;;;14.66;60.63;101570.09;10510672;28;20040;-73
2022/06/04 00:51:46;;;;;;;4.50;2.90;;;;;;;14.67;61.73;101576.25;10525445;28;20044;-72
2022/06/04 00:56:55;;;;;;;4.88;2.95;;;;;;;14.55;61.77;101571.38;10479436;28;20044;-73
2022/06/04 01:02:12;;;;;;;4.40;2.35;;;;;;;14.38;62.38;101576.81;10485631;28;20049;-75
2022/06/04 01:07:53;;;;;;;3.70;2.55;;;;;;;14.31;62.24;101584.38;10515488;28;20556;-72
2022/06/04 01:13:00;;;;;;;5.55;3.00;;;;;;;14.19;62.33;101592.63;10493827;28;20047;-73
2022/06/04 01:18:23;;;;;;;5.57;2.60;;;;;;;14.13;62.96;101602.88;10533877;28;20040;-73
2022/06/04 01:23:49;;;;;;;13.45;4.28;;;;;;;14.08;63.01;101614.09;10526395;28;20048;-74
2022/06/04 01:28:52;;;;;;;5.15;2.70;;;;;;;14.05;62.76;101613.09;10491515;28;20048;-73
2022/06/04 01:33:56;;;;;;;4.50;2.92;;;;;;;14.01;62.81;101606.75;10477026;28;20429;-73
2022/06/04 01:39:00;;;;;;;5.10;2.88;;;;;;;13.92;63.79;101616.88;10515377;28;20116;-72
2022/06/04 01:44:08;;;;;;;4.78;2.67;;;;;;;13.86;63.17;101625.41;10504735;28;20044;-73
2022/06/04 01:49:21;;;;;;;3.83;2.08;;;;;;;13.80;63.54;101635.63;10473498;28;20037;-73
2022/06/04 01:54:34;;;;;;;5.60;3.00;;;;;;;13.74;64.43;101625.72;10509179;28;20048;-73
2022/06/04 01:59:39;;;;;;;6.43;3.25;;;;;;;13.72;63.85;101623.84;10474085;28;20060;-73
2022/06/04 02:04:41;;;;;;;4.53;3.00;;;;;;;13.70;64.05;101626.41;10486337;28;20468;-73
2022/06/04 02:09:44;;;;;;;6.73;3.20;;;;;;;13.57;64.66;101643.34;10513854;28;20100;-73
2022/06/04 02:14:44;;;;;;;3.95;3.33;;;;;;;13.52;64.30;101636.97;10491264;28;20068;-73
2022/06/04 02:19:45;;;;;;;7.18;2.90;;;;;;;13.51;64.30;101632.53;10531762;28;20044;-73
2022/06/04 02:24:45;;;;;;;4.32;2.85;;;;;;;13.42;65.13;101626.81;10510200;28;20127;-73
2022/06/04 02:29:46;;;;;;;5.25;2.78;;;;;;;13.27;64.67;101625.22;10529614;28;20111;-73
2022/06/04 02:34:54;;;;;;;8.98;3.85;;;;;;;13.22;64.71;101617.09;10516825;28;20051;-73
2022/06/04 02:40:09;;;;;;;6.22;2.67;;;;;;;13.13;64.79;101610.50;10487510;28;20041;-73
2022/06/04 02:45:20;;;;;;;4.57;2.60;;;;;;;12.97;65.00;101601.88;10520628;28;20071;-73
2022/06/04 02:50:37;;;;;;;7.23;2.83;;;;;;;12.77;65.99;101611.34;10497968;28;20044;-72
2022/06/04 02:55:55;;;;;;;5.82;3.00;;;;;;;12.52;66.78;101604.84;10523457;28;20040;-73
2022/06/04 03:00:56;;;;;;;7.57;2.63;;;;;;;12.41;67.17;101599.06;10497353;28;20051;-73
2022/06/04 03:06:01;;;;;;;4.00;2.67;;;;;;;12.28;67.65;101589.63;10504208;28;20131;-73
2022/06/04 03:11:01;;;;;;;5.50;3.45;;;;;;;12.02;68.42;101583.03;10491569;28;20498;-73
2022/06/04 03:16:02;;;;;;;5.05;3.28;;;;;;;12.06;68.85;101578.84;10503016;28;20043;-73
2022/06/04 03:21:04;;;;;;;6.43;3.30;;;;;;;11.89;69.43;101586.66;10504873;28;20078;-73
2022/06/04 03:26:05;;;;;;;6.68;2.70;;;;;;;11.94;69.18;101584.31;10485145;28;20090;-73
2022/06/04 03:31:05;;;;;;;4.65;2.80;;;;;;;11.94;69.24;101584.31;10469115;28;20098;-73
2022/06/04 03:36:08;;;;;;;5.38;3.05;;;;;;;11.84;69.61;101588.16;10509861;28;20121;-74
2022/06/04 03:41:09;;;;;;;6.93;3.05;;;;;;;11.89;69.50;101579.72;10527868;28;20051;-73
2022/06/04 03:46:09;;;;;;;5.20;2.90;;;;;;;11.77;69.95;101578.13;10485492;28;20059;-73
2022/06/04 03:51:10;;;;;;;5.00;3.30;;;;;;;11.83;70.03;101584.63;10523553;28;20069;-75
2022/06/04 03:56:10;;;;;;;11.23;4.03;;;;;;;11.79;70.35;101593.16;10503461;28;20047;-73
2022/06/04 04:01:15;;;;;;;9.07;3.90;;;;;;;11.85;70.43;101603.97;10484055;28;20040;-73
2022/06/04 04:06:22;;;;;;;5.88;3.50;;;;;;;11.98;70.14;101623.00;10509079;28;20046;-73
2022/06/04 04:11:25;;;;;;;7.32;3.95;;;;;;;12.04;70.14;101621.63;10488916;28;20086;-71
2022/06/04 04:16:26;;;;;;;5.07;3.50;;;;;;;12.07;70.37;101618.28;10507810;28;20048;-72
2022/06/04 04:21:26;;;;;;;13.32;8.90;;;;;;;12.01;70.94;101623.22;10494116;28;20082;-72
2022/06/04 04:26:27;;;;;;;9.65;4.40;;;;;;;12.14;70.11;101630.91;10515034;28;20131;-73
2022/06/04 04:31:27;;;;;;;7.07;3.15;;;;;;;12.28;69.97;101636.88;10492514;28;20464;-72
2022/06/04 04:36:30;;;;;;;6.45;4.03;;;;;;;12.36;69.99;101634.69;10496331;28;20382;-73
2022/06/04 04:41:30;;;;;;;;;;;;;;;12.43;69.55;101634.19;10464962;28;20487;-72
2022/06/04 04:46:31;;;;;;;6.70;5.38;;;;;;;12.51;69.77;101641.56;10491550;28;19997;-72
2022/06/04 04:51:34;;;;;;;6.03;4.00;;;;;;;12.64;70.13;101644.00;10481995;28;20041;-73
2022/06/04 04:56:34;;;;;;;9.57;4.47;;;;;;;12.84;69.09;101657.25;10477897;28;20063;-73
2022/06/04 05:01:36;;;;;;;5.50;4.22;;;;;;;13.14;68.09;101643.84;10483077;28;20133;-72
2022/06/04 05:06:37;;;;;;;8.52;4.28;;;;;;;13.15;68.60;101645.66;10462580;28;20032;-72
2022/06/04 05:11:38;;;;;;;9.05;5.55;;;;;;;13.40;67.19;101645.09;10479597;28;20045;-72
2022/06/04 05:16:38;;;;;;;6.22;4.20;;;;;;;13.56;67.33;101648.50;10484821;28;20377;-73
2022/06/04 05:21:47;;;;;;;6.80;4.55;;;;;;;13.77;66.82;101649.53;10494817;28;20040;-72
2022/06/04 05:26:51;;;;;;;9.57;4.15;;;;;;;13.99;66.14;101661.06;10499323;28;20089;-71
2022/06/04 05:31:56;;;;;;;20.15;5.53;;;;;;;14.17;66.94;101668.00;10465670;28;20051;-71
2022/06/04 05:36:56;;;;;;;9.63;4.85;;;;;;;14.47;65.46;101672.84;10478621;28;20040;-71
2022/06/04 05:41:57;;;;;;;6.72;4.90;;;;;;;14.82;64.47;101684.06;10491778;28;20039;-72
2022/06/04 05:46:58;;;;;;;8.70;4.85;;;;;;;15.34;62.66;101688.03;10466644;28;20389;-71
2022/06/04 05:51:59;;;;;;;7.72;4.72;;;;;;;15.50;61.34;101692.16;10476305;28;20037;-72
2022/06/04 05:56:59;;;;;;;5.90;4.53;;;;;;;15.22;62.12;101701.59;10493129;28;20115;-72
2022/06/04 06:02:01;;;;;;;8.98;5.25;;;;;;;15.07;63.05;101695.66;10497114;28;20032;-73
2022/06/04 06:07:02;;;;;;;11.88;6.68;;;;;;;14.96;64.10;101704.00;10489578;28;20090;-73
2022/06/04 06:12:03;;;;;;;10.25;6.10;;;;;;;15.13;63.83;101706.47;10490134;28;20464;-73
2022/06/04 06:17:04;;;;;;;7.88;5.80;;;;;;;15.27;62.99;101701.78;10504658;28;20047;-73
2022/06/04 06:22:04;;;;;;;13.20;6.20;;;;;;;15.20;63.31;101692.72;10529082;28;20052;-73
2022/06/04 06:27:07;;;;;;;7.78;5.75;;;;;;;15.20;63.51;101690.06;10529161;28;20046;-72
2022/06/04 06:32:08;;;;;;;9.13;5.57;;;;;;;15.49;62.33;101698.28;10491003;28;20040;-72
2022/06/04 06:37:08;;;;;;;9.52;6.65;;;;;;;15.50;61.68;101699.19;10528171;28;20039;-71
2022/06/04 06:42:09;;;;;;;8.70;5.90;;;;;;;15.30;62.10;101704.56;10494401;28;20032;-71
2022/06/04 06:47:10;;;;;;;10.80;7.57;;;;;;;15.06;62.39;101725.50;10531289;28;20048;-71
2022/06/04 06:52:10;;;;;;;11.30;6.40;;;;;;;14.90;64.07;101727.47;10511228;28;20067;-71
2022/06/04 06:57:11;;;;;;;8.50;6.75;;;;;;;14.85;64.78;101736.03;10526910;28;20078;-72
2022/06/04 07:02:12;;;;;;;8.52;6.13;;;;;;;14.82;64.28;101744.69;10512277;28;20424;-72
2022/06/04 07:07:13;;;;;;;12.10;6.93;;;;;;;14.81;65.11;101733.25;10526530;28;20048;-72
2022/06/04 07:12:13;;;;;;;7.47;5.97;;;;;;;14.78;64.02;101737.47;10528292;28;20028;-72
2022/06/04 07:17:14;;;;;;;12.73;6.25;;;;;;;14.77;65.21;101738.31;10526826;28;20044;-72
2022/06/04 07:22:15;;;;;;;12.52;7.68;;;;;;;14.81;64.28;101740.25;10529325;28;20038;-71
2022/06/04 07:27:16;;;;;;;12.27;6.70;;;;;;;14.87;64.72;101737.88;10526153;28;20032;-72
2022/06/04 07:32:17;;;;;;;11.38;8.13;;;;;;;15.00;63.71;101735.78;10509376;28;20047;-71
2022/06/04 07:37:17;;;;;;;10.10;6.60;;;;;;;15.12;63.37;101723.13;10528463;28;20063;-71
2022/06/04 07:42:21;;;;;;;9.68;6.68;;;;;;;15.35;63.20;101723.19;10472416;28;20060;-72
2022/06/04 07:47:21;;;;;;;10.02;7.60;;;;;;;15.85;62.97;101720.81;10489665;28;20047;-73
2022/06/04 07:52:22;;;;;;;9.95;6.45;;;;;;;16.28;59.95;101722.53;10485336;28;20063;-72
2022/06/04 07:57:22;;;;;;;10.40;7.10;;;;;;;16.71;59.49;101722.31;10483153;28;20040;-73
2022/06/04 08:02:24;;;;;;;12.13;6.03;;;;;;;17.31;59.25;101735.00;10467251;28;20503;-73
2022/06/04 08:07:25;;;;;;;11.38;6.35;;;;;;;17.55;57.58;101734.00;10486055;28;20127;-72
2022/06/04 08:12:31;;;;;;;8.10;6.55;;;;;;;17.53;56.20;101734.81;10511958;28;20058;-72
2022/06/04 08:17:31;;;;;;;10.70;7.38;;;;;;;17.95;57.39;101720.25;10518809;28;20075;-72
2022/06/04 08:22:32;;;;;;;10.27;6.28;;;;;;;19.35;54.11;101714.47;10483969;28;20515;-72
2022/06/04 08:27:32;;;;;;;10.30;5.75;;;;;;;20.20;51.40;101720.88;10501201;28;20032;-73
2022/06/04 08:32:34;;;;;;;8.67;6.10;;;;;;;22.10;48.89;101704.66;10483889;28;20028;-73
2022/06/04 08:37:34;;;;;;;7.57;4.90;;;;;;;23.71;41.98;101700.03;10489370;28;20037;-73
2022/06/04 08:43:11;;;;;;;11.40;6.70;;;;;;;23.74;43.36;101707.19;10481731;28;20182;-73
2022/06/04 08:48:19;;;;;;;10.23;6.95;;;;;;;22.40;43.75;101721.00;10432165;28;20098;-73
2022/06/04 08:53:22;;;;;;;10.32;7.80;;;;;;;22.18;46.01;101725.19;10499580;28;20403;-73
2022/06/04 08:58:53;;;;;;;8.57;6.13;;;;;;;24.45;40.92;101720.91;10482606;28;20093;-73
2022/06/04 09:04:00;;;;;;;8.00;6.95;;;;;;;25.06;40.25;101732.69;10519788;28;20056;-72
2022/06/04 09:09:06;;;;;;;8.40;6.05;;;;;;;24.98;39.85;101737.13;10485204;28;20037;-72
2022/06/04 09:14:28;;;;;;;12.55;7.30;;;;;;;24.81;42.10;101730.88;10471104;28;20044;-73
2022/06/04 09:19:35;;;;;;;7.60;6.50;;;;;;;24.60;40.38;101733.44;10525642;28;20044;-73
2022/06/04 09:24:36;;;;;;;8.73;7.13;;;;;;;24.74;40.27;101730.84;10508972;28;20029;-72
2022/06/04 09:30:09;;;;;;;9.07;6.57;;;;;;;25.69;39.50;101730.91;10490347;28;20044;-72
2022/06/04 09:35:28;;;;;;;8.23;5.82;;;;;;;27.22;36.54;101729.31;10477755;28;20056;-73
2022/06/04 09:40:32;;;;;;;8.15;6.57;;;;;;;27.21;36.68;101727.53;10479489;28;20032;-73
2022/06/04 09:45:33;;;;;;;7.40;5.82;;;;;;;28.13;35.64;101726.66;10514156;28;20130;-72
2022/06/04 09:50:35;;;;;;;8.27;5.80;;;;;;;28.55;33.81;101729.72;10497867;28;20096;-73
2022/06/04 09:55:35;;;;;;;9.80;6.45;;;;;;;27.96;35.61;101725.03;10531057;28;20067;-73
2022/06/04 10:00:38;;;;;;;8.27;6.13;;;;;;;28.78;34.91;101722.22;10530923;28;20122;-73
2022/06/04 10:05:47;;;;;;;9.63;6.82;;;;;;;29.52;32.67;101736.31;10512688;28;20075;-73
2022/06/04 10:10:47;;;;;;;15.95;7.05;;;;;;;29.10;32.39;101748.69;10488221;28;20040;-72
2022/06/04 10:15:48;;;;;;;10.03;6.63;;;;;;;28.92;34.76;101747.16;10494236;28;20054;-73
2022/06/04 10:21:09;;;;;;;9.75;6.88;;;;;;;29.62;32.11;101746.03;10508290;28;20123;-73
2022/06/04 10:26:30;;;;;;;15.80;7.67;;;;;;;29.43;32.23;101737.38;10494050;28;20044;-73
2022/06/04 10:31:41;;;;;;;8.35;7.50;;;;;;;29.33;34.43;101743.81;10456369;28;20078;-72
2022/06/04 10:37:00;;;;;;;7.73;6.67;;;;;;;29.31;32.96;101741.16;10529207;28;20400;-73
2022/06/04 10:42:13;;;;;;;11.27;7.20;;;;;;;28.89;33.04;101739.09;10510446;28;20278;-73
2022/06/04 10:47:35;;;;;;;11.32;6.88;;;;;;;28.95;32.97;101732.75;10506410;28;20532;-73
2022/06/04 10:52:48;;;;;;;11.57;6.93;;;;;;;29.69;33.11;101728.81;10511390;28;23921;-73
2022/06/04 10:58:01;;;;;;;7.22;6.50;;;;;;;30.46;32.43;101729.06;10486440;28;20127;-72
2022/06/04 11:03:11;;;;;;;11.05;8.18;;;;;;;30.39;31.81;101726.53;10471594;28;20437;-73
2022/06/04 11:08:27;;;;;;;8.85;7.03;;;;;;;29.71;32.40;101726.06;10505992;28;20036;-73
2022/06/04 11:13:49;;;;;;;10.45;6.97;;;;;;;29.36;32.40;101728.47;10495076;28;20040;-73
2022/06/04 11:18:51;;;;;;;9.38;6.63;;;;;;;29.89;31.58;101730.25;10511917;28;20471;-73
2022/06/04 11:23:59;;;;;;;7.43;6.55;;;;;;;29.72;32.95;101726.06;10528804;28;20510;-73
2022/06/04 11:29:01;;;;;;;5.93;5.00;;;;;;;30.38;31.41;101732.88;10495406;28;20079;-73
2022/06/04 11:34:23;;;;;;;7.38;5.30;;;;;;;29.73;31.54;101751.22;10475070;28;20044;-73
2022/06/04 11:39:54;;;;;;;9.52;7.15;;;;;;;30.08;33.01;101730.78;10500694;28;20044;-73
2022/06/04 11:45:08;;;;;;;7.63;6.78;;;;;;;31.52;32.43;101726.56;10444439;28;20045;-73
2022/06/04 11:50:45;;;;;;;9.15;6.93;;;;;;;30.64;31.62;101734.13;10444483;28;20045;-73
2022/06/04 11:55:53;;;;;;;7.93;5.43;;;;;;;29.88;32.80;101740.13;10443004;28;20519;-73
2022/06/04 12:00:57;;;;;;;8.63;7.00;;;;;;;29.99;34.92;101715.69;10444307;28;20120;-73
2022/06/04 12:06:10;;;;;;;11.80;8.93;;;;;;;30.48;31.14;101688.53;10426441;28;20199;-73
2022/06/04 12:11:34;;;;;;;9.50;7.78;;;;;;;30.59;31.49;101680.19;10443333;28;20033;-73
2022/06/04 12:16:35;;;;;;;8.32;6.50;;;;;;;30.33;33.41;101677.16;10424108;28;20033;-74
2022/06/04 12:27:20;;;;;;;7.63;6.43;;;;;;;30.83;32.27;101683.22;10440771;28;20477;-73
2022/06/04 12:32:31;;;;;;;15.10;8.25;;;;;;;29.97;31.92;101681.50;10444183;28;20473;-73
2022/06/04 12:37:35;;;;;;;8.30;7.30;;;;;;;29.26;35.09;101687.31;10440417;28;20384;-72
2022/06/04 12:42:36;;;;;;;6.70;5.40;;;;;;;30.25;33.54;101681.84;10439956;28;20492;-73
2022/06/04 12:47:37;;;;;;;9.80;6.40;;;;;;;30.44;31.70;101679.59;10440626;28;20115;-73
2022/06/04 12:52:39;;;;;;;7.07;5.57;;;;;;;29.18;33.74;101682.97;10439447;28;20392;-73
2022/06/04 12:57:42;;;;;;;6.63;6.00;;;;;;;28.25;36.27;101690.63;10439811;28;20112;-73
2022/06/04 13:02:59;;;;;;;5.90;5.30;;;;;;;27.77;38.74;101684.00;10441562;28;20033;-73
2022/06/04 13:08:19;;;;;;;7.70;5.88;;;;;;;28.66;36.31;101674.81;10440411;28;20175;-73
2022/06/04 13:13:53;;;;;;;7.20;6.03;;;;;;;29.24;33.71;101689.13;10398475;28;1193340;-74
2022/06/04 13:19:06;;;;;;;6.38;5.00;;;;;;;29.49;34.05;101679.75;10442313;28;20065;-73
2022/06/04 13:24:13;;;;;;;6.55;5.82;;;;;;;29.56;33.49;101681.44;10442733;28;20044;-73
2022/06/04 13:29:22;;;;;;;6.40;4.25;;;;;;;29.83;32.80;101663.78;10425000;28;20029;-72
2022/06/04 13:34:24;;;;;;;8.50;4.78;;;;;;;30.13;34.06;101657.81;10440373;28;20112;-73
2022/06/04 13:39:25;;;;;;;6.10;4.32;;;;;;;30.07;33.18;101645.34;10424113;28;20124;-73
2022/06/04 13:44:26;;;;;;;7.40;6.18;;;;;;;30.25;32.87;101649.44;10440418;28;20463;-73
2022/06/04 13:49:27;;;;;;;5.80;5.10;;;;;;;30.63;33.53;101638.69;10442220;28;20128;-72
2022/06/04 13:54:32;;;;;;;;;;;;;;;30.26;34.38;101635.03;10440273;28;20041;-72
2022/06/04 13:59:42;;;;;;;7.07;4.85;;;;;;;30.68;32.75;101644.00;10440367;28;20045;-73
2022/06/04 14:10:04;;;;;;;8.95;5.40;;;;;;;29.82;32.66;101632.34;10465491;28;20033;-73
2022/06/04 14:15:42;;;;;;;8.45;5.97;;;;;;;29.80;33.25;101639.56;10472751;28;20041;-73
2022/06/04 14:21:05;;;;;;;9.77;5.88;;;;;;;29.05;33.19;101641.88;10478449;28;20166;-73
2022/06/04 14:26:18;;;;;;;7.32;5.88;;;;;;;28.93;34.94;101619.63;10528247;28;20127;-73
2022/06/04 14:31:47;;;;;;;9.23;5.22;;;;;;;28.37;36.54;101631.25;10512633;28;20487;-73
2022/06/04 14:36:51;;;;;;;7.25;5.70;;;;;;;27.37;36.84;101631.56;10504969;28;20534;-73
2022/06/04 14:42:12;;;;;;;8.13;5.03;;;;;;;27.14;38.05;101639.81;10498460;28;20035;-73
2022/06/04 14:47:43;;;;;;;6.75;6.03;;;;;;;27.88;35.62;101624.72;10530344;28;20036;-73
2022/06/04 14:52:48;;;;;;;8.73;5.47;;;;;;;28.08;36.35;101624.44;10512094;28;20055;-73
2022/06/04 14:58:18;;;;;;;8.63;5.63;;;;;;;27.61;36.57;101617.88;10493776;28;20135;-73
2022/06/04 15:03:43;;;;;;;7.15;5.07;;;;;;;26.40;38.80;101619.81;10528094;28;20047;-73
2022/06/04 15:08:50;;;;;;;9.10;6.93;;;;;;;25.70;40.66;101613.88;10529906;28;20036;-73
2022/06/04 15:14:21;;;;;;;7.65;6.85;;;;;;;25.50;40.51;101610.34;10494055;28;20044;-73
2022/06/04 15:19:32;;;;;;;7.80;5.07;;;;;;;25.60;42.15;101599.59;10483618;28;20055;-73
2022/06/04 15:25:07;;;;;;;14.60;7.57;;;;;;;25.39;40.10;101597.84;10484718;28;20038;-73
2022/06/04 15:36:13;;;;;;;15.93;8.43;;;;;;;25.15;41.56;101587.16;10487986;28;20043;-73
2022/06/04 15:41:20;;;;;;;13.90;7.70;;;;;;;25.05;41.09;101572.00;10485249;28;20043;-75
2022/06/04 15:46:22;;;;;;;5.60;4.90;;;;;;;25.18;42.28;101560.38;10513506;28;20047;-74
2022/06/04 15:56:46;;;;;;;;;;;;;;;25.28;42.00;101557.66;10507886;28;20500;-74
2022/06/04 16:01:51;;;;;;;16.33;11.23;;;;;;;25.19;42.39;101563.97;10486370;28;20056;-75
2022/06/04 16:07:14;;;;;;;9.02;5.40;;;;;;;25.19;42.96;101556.81;10487673;28;20487;-73
2022/06/04 16:12:17;;;;;;;6.03;4.80;;;;;;;25.01;42.72;101567.53;10511427;28;20099;-73
2022/06/04 16:17:24;;;;;;;15.10;11.55;;;;;;;24.88;43.41;101562.22;10501625;28;20036;-74
2022/06/04 16:22:57;;;;;;;9.05;7.10;;;;;;;24.84;43.98;101563.09;10484350;28;20047;-74
2022/06/04 16:28:08;;;;;;;9.07;5.22;;;;;;;24.88;43.31;101570.25;10495039;28;20043;-73
2022/06/04 16:33:16;;;;;;;7.23;6.07;;;;;;;24.91;43.54;101570.22;10466631;28;20071;-74
2022/06/04 16:38:35;;;;;;;17.75;13.60;;;;;;;24.83;42.14;101572.03;10496272;28;20081;-73
2022/06/04 16:43:37;;;;;;;6.57;5.88;;;;;;;24.71;43.49;101561.28;10525337;28;20111;-73
2022/06/04 16:48:39;;;;;;;8.65;5.13;;;;;;;24.74;45.33;101556.88;10452810;28;20547;-73
2022/06/04 16:53:40;;;;;;;9.10;6.40;;;;;;;24.73;43.48;101554.19;10446156;28;20385;-73
2022/06/04 16:58:40;;;;;;;7.57;5.57;;;;;;;24.69;43.68;101547.03;10461145;28;20060;-73
2022/06/04 17:03:53;;;;;;;6.93;6.20;;;;;;;24.60;44.17;101545.25;10488077;28;20083;-74
2022/06/04 17:09:31;;;;;;;11.38;6.30;;;;;;;24.55;43.53;101550.59;10474368;28;20101;-74
2022/06/04 17:14:59;;;;;;;11.63;6.07;;;;;;;24.48;43.39;101551.47;10481365;28;20068;-73
2022/06/04 17:20:06;;;;;;;8.75;5.68;;;;;;;24.39;44.19;101552.38;10475452;28;20047;-73
2022/06/04 17:25:14;;;;;;;8.77;6.00;;;;;;;24.31;44.25;101555.03;10481216;28;20123;-73
2022/06/04 17:30:27;;;;;;;6.88;5.72;;;;;;;24.21;44.21;101561.25;10444957;28;20044;-73
2022/06/04 17:35:32;;;;;;;10.82;5.60;;;;;;;23.94;44.66;101565.59;10484078;28;20040;-73
2022/06/04 17:40:39;;;;;;;11.63;5.40;;;;;;;23.70;45.81;101563.75;10523715;28;20056;-73
2022/06/04 17:45:39;;;;;;;7.97;5.22;;;;;;;23.43;47.89;101560.06;10509827;28;20133;-73
2022/06/04 17:50:41;;;;;;;10.43;5.37;;;;;;;23.37;46.49;101546.69;10482187;28;20056;-74
2022/06/04 17:55:42;;;;;;;7.95;5.03;;;;;;;23.31;47.41;101537.75;10460387;28;20105;-73
2022/06/04 18:00:43;;;;;;;7.88;5.25;;;;;;;23.08;47.19;101539.38;10509036;28;20045;-73
2022/06/04 18:05:46;;;;;;;8.90;5.63;;;;;;;23.01;46.83;101542.00;10475182;28;20044;-73
2022/06/04 18:10:46;;;;;;;5.70;5.15;;;;;;;22.93;47.61;101533.03;10446275;28;20049;-74
2022/06/04 18:15:48;;;;;;;5.23;4.73;;;;;;;22.68;49.17;101534.63;10453888;28;20036;-73
2022/06/04 18:20:49;;;;;;;;;;;;;;;22.49;49.81;101537.13;10513253;28;20426;-72
2022/06/04 18:25:49;;;;;;;8.07;5.15;;;;;;;22.48;48.97;101524.66;10525605;28;19920;-73
2022/06/04 18:30:50;;;;;;;5.63;4.90;;;;;;;22.31;49.86;101532.50;10509219;28;20045;-72
2022/06/04 18:36:00;;;;;;;7.57;5.10;;;;;;;22.06;51.25;101534.00;10490424;28;20080;-73
2022/06/04 18:41:01;;;;;;;9.05;4.78;;;;;;;21.75;51.96;101533.66;10528455;28;20491;-72
2022/06/04 18:56:40;;;;;;;8.23;5.75;;;;;;;20.97;53.63;101543.22;10482512;28;20119;-73
2022/06/04 19:01:41;;;;;;;14.52;8.98;;;;;;;20.72;54.08;101537.50;10489708;28;20033;-72
2022/06/04 19:06:43;;;;;;;8.15;5.93;;;;;;;20.48;55.04;101546.84;10486820;28;20048;-73
2022/06/04 19:17:03;;;;;;;9.70;7.72;;;;;;;19.93;58.29;101558.22;10528494;28;20401;-73
2022/06/04 19:27:26;;;;;;;7.18;5.45;;;;;;;19.50;58.48;101559.97;10472579;28;20041;-73
2022/06/04 19:32:27;;;;;;;7.85;5.30;;;;;;;19.52;58.05;101571.50;10477779;28;20037;-73
2022/06/04 19:37:28;;;;;;;7.43;4.93;;;;;;;19.58;57.04;101566.31;10483543;28;20062;-72
2022/06/04 19:42:29;;;;;;;7.30;4.97;;;;;;;19.60;57.29;101569.91;10453137;28;20037;-72
2022/06/04 19:47:29;;;;;;;7.75;4.68;;;;;;;19.59;56.80;101572.56;10443516;28;20175;-72
2022/06/04 19:52:30;;;;;;;5.55;4.55;;;;;;;19.52;57.01;101571.50;10445158;28;20384;-72
2022/06/04 19:57:32;;;;;;;6.43;4.37;;;;;;;19.40;57.32;101581.84;10484952;28;20531;-73
2022/06/04 20:02:33;;;;;;;4.95;4.35;;;;;;;19.34;57.65;101583.50;10482073;28;20040;-73
2022/06/04 20:07:35;;;;;;;9.82;4.05;;;;;;;19.24;57.66;101586.81;10462072;28;20488;-73
2022/06/04 20:12:35;;;;;;;;;;;;;;;19.12;59.07;101575.91;10465289;28;20041;-73
2022/06/04 20:17:36;;;;;;;5.63;4.50;;;;;;;19.05;58.53;101573.09;10487347;28;20652;-73
2022/06/04 20:22:37;;;;;;;6.30;4.00;;;;;;;19.01;58.39;101576.53;10488027;28;20476;-73
2022/06/04 20:27:37;;;;;;;11.52;9.48;;;;;;;19.05;58.42;101583.72;10484244;28;20044;-74
2022/06/04 20:32:39;;;;;;;7.57;6.28;;;;;;;19.02;58.58;101577.47;10500822;28;20036;-73
2022/06/04 20:37:39;;;;;;;5.68;4.65;;;;;;;18.89;59.03;101566.53;10490935;28;20042;-73
2022/06/04 20:42:40;;;;;;;4.88;3.80;;;;;;;18.89;58.83;101568.25;10490798;28;20400;-73
2022/06/04 20:47:41;;;;;;;14.02;11.30;;;;;;;18.76;59.40;101577.69;10480568;28;20074;-74
2022/06/04 20:52:41;;;;;;;6.43;4.65;;;;;;;18.87;58.19;101559.38;10510672;28;20162;-73
2022/06/04 20:57:42;;;;;;;9.23;4.63;;;;;;;18.79;58.77;101564.50;10507587;28;20052;-72
2022/06/04 21:02:42;;;;;;;14.88;5.65;;;;;;;18.62;59.44;101562.31;10495108;28;20041;-72
2022/06/04 21:07:43;;;;;;;6.63;4.72;;;;;;;18.63;59.22;101542.00;10482241;28;20044;-73
2022/06/04 21:12:44;;;;;;;11.02;8.35;;;;;;;18.52;59.30;101539.09;10512479;28;20039;-73
2022/06/04 21:17:44;;;;;;;8.50;4.65;;;;;;;18.49;59.83;101547.84;10509752;28;20391;-73
2022/06/04 21:22:45;;;;;;;10.75;6.13;;;;;;;18.48;59.61;101546.03;10524293;28;20040;-74
2022/06/04 21:27:46;;;;;;;9.27;5.43;;;;;;;18.54;59.25;101547.06;10534916;28;20048;-74
2022/06/04 21:32:47;;;;;;;10.13;4.90;;;;;;;18.53;59.90;101538.22;10501182;28;20123;-74
2022/06/04 21:37:49;;;;;;;5.93;5.32;;;;;;;18.30;61.04;101538.53;10474148;28;20072;-73
2022/06/04 21:42:50;;;;;;;6.20;4.53;;;;;;;18.26;60.35;101531.34;10513414;28;20067;-74
2022/06/04 21:47:52;;;;;;;9.07;7.13;;;;;;;18.23;61.00;101541.88;10492601;28;20500;-73
2022/06/04 21:52:52;;;;;;;5.95;4.78;;;;;;;18.18;60.94;101552.31;10480911;28;20046;-73
2022/06/04 21:57:53;;;;;;;9.15;6.45;;;;;;;18.15;60.47;101567.25;10490993;28;20143;-73
2022/06/04 22:02:53;;;;;;;9.77;8.43;;;;;;;18.10;61.68;101572.41;10503545;28;20117;-73
2022/06/04 22:07:54;;;;;;;6.05;5.00;;;;;;;18.13;59.80;101571.63;10439261;28;20516;-74
2022/06/04 22:12:55;;;;;;;8.05;7.05;;;;;;;18.20;60.24;101563.84;10513836;28;20036;-74
2022/06/04 22:17:57;;;;;;;9.60;6.57;;;;;;;18.30;59.35;101569.41;10527127;28;20056;-74
2022/06/04 22:22:58;;;;;;;6.93;4.70;;;;;;;18.39;58.83;101567.00;10525045;28;20068;-74
2022/06/04 22:27:59;;;;;;;6.85;4.72;;;;;;;18.55;58.32;101567.41;10530808;28;20136;-73
2022/06/04 22:32:59;;;;;;;7.22;5.43;;;;;;;18.63;57.85;101557.91;10498728;28;20086;-73
2022/06/04 22:38:00;;;;;;;17.90;8.35;;;;;;;18.53;58.72;101551.47;10474443;28;20097;-73
2022/06/04 22:43:00;;;;;;;8.95;5.10;;;;;;;18.39;58.90;101542.28;10521250;28;20087;-74
2022/06/04 22:48:01;;;;;;;5.78;4.95;;;;;;;18.35;58.54;101543.94;10525305;28;20116;-73
2022/06/04 22:53:02;;;;;;;7.68;5.18;;;;;;;18.45;58.06;101539.78;10504590;28;20032;-73
2022/06/04 22:58:02;;;;;;;8.27;5.22;;;;;;;18.36;58.72;101537.78;10496823;28;20040;-74
2022/06/04 23:03:04;;;;;;;116.35;86.80;;;;;;;18.26;59.08;101525.13;10488388;28;20500;-74
2022/06/04 23:08:05;;;;;;;55.23;35.77;;;;;;;18.25;58.96;101515.41;10467293;28;20032;-74
2022/06/04 23:23:43;;;;;;;9.50;5.20;;;;;;;18.07;59.90;101516.69;10487590;28;20424;-73
2022/06/04 23:28:46;;;;;;;10.32;6.55;;;;;;;17.96;60.39;101508.44;10454043;28;20036;-74
2022/06/04 23:33:49;;;;;;;7.95;4.95;;;;;;;17.90;60.26;101510.94;10471233;28;20045;-74
2022/06/04 23:38:49;;;;;;;9.43;6.53;;;;;;;17.92;60.26;101511.88;10456424;28;20032;-74
2022/06/04 23:43:50;;;;;;;9.55;5.60;;;;;;;17.89;60.77;101517.06;10509013;28;20051;-75
2022/06/04 23:48:50;;;;;;;8.48;5.93;;;;;;;17.79;60.74;101505.31;10519124;28;20067;-76
2022/06/04 23:53:51;;;;;;;7.88;5.03;;;;;;;17.68;61.40;101510.31;10484831;28;20135;-76
2022/06/04 23:58:52;;;;;;;6.68;4.32;;;;;;;17.49;62.65;101516.81;10496390;28;20488;-75
